Data for 07/09/2016

Time Sea-Level Adjusted Pressure Absolute Pressure Temperature Relative Humidity Dew Point   
(mb) (inHg) (mb) (inHg) (C) (F) (%) (C) (F)
00:05 1017 30.03 846 24.98 14.6 58.3 69 9 48.2
00:10 1017 30.03 846 24.98 13.9 57.1 69 8.3 46.9
00:15 1017 30.03 846 24.98 13.8 56.8 69 8.3 47
00:20 1017 30.03 846 24.98 13.7 56.6 70 8.4 47.1
00:25 1017 30.03 846 24.98 13.7 56.7 67 7.8 46
00:30 1017 30.03 846 24.98 13.7 56.7 68 8 46.4
00:35 1017 30.03 846 24.98 13.6 56.5 67 7.7 45.9
00:40 1017 30.03 846 24.98 13.6 56.5 68 7.8 46
00:45 1017 30.03 846 24.98 13.6 56.4 69 8.1 46.6
00:50 1017 30.03 846 24.98 13 55.4 72 8.2 46.7
00:55 1017 30.03 846 24.98 12.7 54.9 70 7.5 45.5
01:00 1017 30.03 846 24.98 13.2 55.7 66 7.1 44.8
01:05 1017 30.03 846 24.98 13.6 56.4 64 7 44.6
01:10 1017 30.03 846 24.98 13.6 56.5 64 6.9 44.5
01:15 1017 30.03 846 24.98 13.8 56.8 62 6.7 44
01:20 1017 30.03 846 24.98 13.9 57 62 6.8 44.2
01:25 1017 30.03 846 24.98 14 57.3 61 6.8 44.2
01:30 1017 30.03 846 24.98 14 57.2 61 6.7 44.1
01:35 1017 30.03 846 24.98 13.9 56.9 63 7 44.6
01:40 1017 30.03 846 24.98 13.4 56.1 66 7.2 45
01:45 1017 30.03 846 24.98 12.9 55.2 67 6.9 44.5
01:50 1017 30.03 846 24.98 12.8 55 68 7.1 44.7
01:55 1017 30.03 846 24.98 12.5 54.4 69 7 44.7
02:00 1017 30.03 846 24.98 12.4 54.3 69 6.9 44.5
02:05 1017 30.03 846 24.98 12.4 54.3 69 7 44.6
02:10 1017 30.03 846 24.98 12.4 54.3 69 6.9 44.4
02:15 1017 30.03 846 24.98 12.7 54.9 67 6.8 44.2
02:20 1017 30.03 846 24.98 13 55.4 66 6.8 44.3
02:25 1017 30.03 846 24.98 13.1 55.6 65 6.7 44
02:30 1017 30.03 846 24.98 13.3 55.9 63 6.5 43.7
02:35 1017 30.03 847 25.01 13.5 56.3 62 6.4 43.6
02:40 1017 30.03 847 25.01 13.6 56.5 61 6.4 43.5
02:45 1017 30.03 847 25.01 13.9 57.1 61 6.5 43.7
02:50 1017 30.03 847 25.01 13.7 56.7 61 6.5 43.7
02:55 1017 30.03 847 25.01 13.8 56.8 60 6.3 43.3
03:00 1017 30.03 847 25.01 13.6 56.5 61 6.3 43.3
03:05 1017 30.03 847 25.01 13.3 55.9 64 6.6 43.9
03:10 1017 30.03 847 25.01 12.7 54.9 66 6.5 43.7
03:15 1017 30.03 846 24.98 12.4 54.3 67 6.5 43.7
03:20 1017 30.03 847 25.01 12.3 54.1 67 6.3 43.3
03:25 1017 30.03 847 25.01 12.3 54.1 66 6.3 43.3
03:30 1017 30.03 846 24.98 12.4 54.3 66 6.2 43.1
03:35 1017 30.03 847 25.01 12.4 54.4 65 6.1 42.9
03:40 1017 30.03 847 25.01 12.5 54.5 64 5.9 42.6
03:45 1017 30.03 847 25.01 12.7 54.9 63 5.9 42.6
03:50 1017 30.03 847 25.01 12.9 55.2 62 5.8 42.5
03:55 1017 30.03 847 25.01 13 55.4 61 5.8 42.4
04:00 1017 30.03 847 25.01 13.1 55.5 61 5.9 42.6
04:05 1017 30.03 847 25.01 13 55.4 62 5.9 42.6
04:10 1017 30.03 847 25.01 12.8 55 64 6.1 43
04:15 1017 30.03 847 25.01 12.5 54.6 64 6 42.7
04:20 1017 30.03 847 25.01 12.7 54.8 64 6.1 42.9
04:25 1017 30.03 847 25.01 12.8 55 63 6 42.9
04:30 1018 30.06 847 25.01 12.9 55.1 64 6.2 43.2
04:35 1018 30.06 847 25.01 12.8 55 64 6.2 43.1
04:40 1018 30.06 847 25.01 13 55.3 62 6 42.8
04:45 1018 30.06 847 25.01 13.2 55.7 61 5.8 42.4
04:50 1018 30.06 847 25.01 13.4 56.1 61 6 42.9
04:55 1018 30.06 847 25.01 13.4 56.1 61 6 42.8
05:00 1018 30.06 847 25.01 13.3 56 61 6.1 42.9
05:05 1017 30.03 847 25.01 13.3 55.9 61 5.9 42.7
05:10 1017 30.03 847 25.01 13.3 56 60 5.9 42.6
05:15 1018 30.06 847 25.01 13.5 56.2 60 5.8 42.5
05:20 1018 30.06 847 25.01 13.8 56.9 58 5.8 42.5
05:25 1018 30.06 847 25.01 14.1 57.3 58 5.9 42.7
05:30 1017 30.03 847 25.01 14 57.2 59 6.1 43
05:35 1017 30.03 847 25.01 13.8 56.9 59 6 42.8
05:40 1017 30.03 847 25.01 13.9 56.9 59 6.1 43.1
05:45 1018 30.06 847 25.01 13.9 56.9 60 6.2 43.1
05:50 1018 30.06 847 25.01 14 57.1 57 5.7 42.3
05:55 1018 30.06 847 25.01 14.3 57.7 56 5.7 42.3
06:00 1018 30.06 847 25.01 14.5 58 58 6.4 43.5
06:05 1018 30.06 847 25.01 14.4 58 59 6.6 43.9
06:10 1018 30.06 847 25.01 14.4 57.9 60 6.7 44
06:15 1018 30.06 847 25.01 14.5 58.1 61 7.1 44.8
06:20 1018 30.06 847 25.01 14.5 58 62 7.4 45.3
06:25 1018 30.06 847 25.01 14.2 57.6 65 7.7 45.8
06:30 1018 30.06 847 25.01 14.2 57.6 66 8 46.5
06:35 1018 30.06 847 25.01 14.4 57.9 65 8.1 46.5
06:40 1018 30.06 847 25.01 14.8 58.7 61 7.4 45.3
06:45 1018 30.06 847 25.01 15.5 59.8 60 7.7 45.9
06:50 1018 30.06 847 25.01 16.1 60.9 57 7.7 45.9
06:55 1018 30.06 847 25.01 16.7 62 54 7.4 45.3
07:00 1018 30.06 847 25.01 17.1 62.7 54 7.7 45.9
07:05 1018 30.06 847 25.01 18 64.4 50 7.7 45.8
07:10 1018 30.06 847 25.01 18.7 65.6 48 7.5 45.5
07:15 1018 30.06 847 25.01 18.6 65.5 46 7 44.5
07:20 1018 30.06 847 25.01 18.5 65.3 47 7.1 44.8
07:25 1018 30.06 847 25.01 18.6 65.4 46 6.7 44.1
07:30 1018 30.06 847 25.01 18.8 65.9 44 6.6 43.8
07:35 1018 30.06 847 25.01 19.5 67 43 6.8 44.2
07:40 1018 30.06 847 25.01 19.9 67.9 44 7.5 45.5
07:45 1018 30.06 847 25.01 20.1 68.3 41 6.8 44.2
07:50 1018 30.06 847 25.01 20.2 68.3 43 7.2 45
07:55 1018 30.06 847 25.01 20.1 68.1 41 6.6 43.9
08:00 1018 30.06 847 25.01 20.6 69.1 42 7.3 45.1
08:05 1018 30.06 847 25.01 20.5 68.8 41 6.8 44.2
08:10 1018 30.06 847 25.01 20.3 68.5 43 7.4 45.3
08:15 1018 30.06 847 25.01 19.8 67.6 42 6.8 44.2
08:20 1018 30.06 847 25.01 20.6 69 40 6.8 44.2
08:25 1018 30.06 847 25.01 21.3 70.3 40 7.5 45.4
08:30 1018 30.06 847 25.01 21.3 70.3 40 7.5 45.4
08:35 1018 30.06 847 25.01 20.7 69.3 40 6.8 44.3
08:40 1018 30.06 847 25.01 20.1 68.3 43 7.2 44.9
08:45 1018 30.06 847 25.01 20.4 68.6 39 6.2 43.1
08:50 1018 30.06 847 25.01 20.9 69.6 41 7.2 44.9
08:55 1018 30.06 847 25.01 21.4 70.6 40 7.6 45.6
09:00 1018 30.06 847 25.01 21.6 70.8 39 7.1 44.8
09:05 1018 30.06 847 25.01 21.4 70.5 40 7.3 45.2
09:10 1018 30.06 847 25.01 21.9 71.5 39 7.4 45.2
09:15 1018 30.06 847 25.01 22.2 72 38 7.6 45.6
09:20 1018 30.06 847 25.01 22.8 73 37 7.5 45.6
09:25 1018 30.06 847 25.01 23 73.3 36 7.4 45.4
09:30 1017 30.03 847 25.01 22.8 73.1 36 7 44.7
09:35 1017 30.03 847 25.01 22.5 72.5 39 7.9 46.2
09:40 1017 30.03 847 25.01 22.6 72.8 35 6.7 44.1
09:45 1017 30.03 847 25.01 23.6 74.4 35 7.5 45.5
09:50 1017 30.03 847 25.01 24.2 75.5 34 7.5 45.5
09:55 1017 30.03 847 25.01 23.3 73.9 37 8 46.4
10:00 1017 30.03 846 24.98 23.4 74.1 35 7.2 45
10:05 1017 30.03 846 24.98 22.6 72.6 38 7.7 45.9
10:10 1017 30.03 846 24.98 22.9 73.2 34 6.5 43.7
10:15 1017 30.03 846 24.98 23.6 74.4 35 7.5 45.4
10:20 1017 30.03 846 24.98 23.9 75 31 5.8 42.5
10:25 1017 30.03 846 24.98 25 77 33 8 46.4
10:30 1017 30.03 846 24.98 24.4 75.9 35 8.3 46.9
10:35 1017 30.03 846 24.98 25.1 77.2 32 7.3 45.1
10:40 1017 30.03 846 24.98 25.4 77.8 31 7.4 45.2
10:45 1017 30.03 846 24.98 26 78.9 30 7.4 45.4
10:50 1017 30.03 846 24.98 26.5 79.7 30 7.6 45.7
10:55 1017 30.03 846 24.98 26.3 79.3 31 7.9 46.2
11:00 1017 30.03 846 24.98 25.1 77.2 32 7.5 45.5
11:05 1017 30.03 846 24.98 24.5 76 34 7.9 46.3
11:10 1017 30.03 846 24.98 24.6 76.3 33 7.5 45.6
11:15 1017 30.03 846 24.98 24.8 76.7 34 8 46.4
11:20 1017 30.03 846 24.98 25 77 35 8.8 47.8
11:25 1017 30.03 846 24.98 24.8 76.7 35 8.5 47.4
11:30 1017 30.03 846 24.98 25 77 34 8.4 47.1
11:35 1017 30.03 846 24.98 24.8 76.7 36 8.8 47.8
11:40 1017 30.03 846 24.98 24.6 76.3 35 8.5 47.3
11:45 1016 30 846 24.98 24.7 76.4 34 7.9 46.2
11:50 1016 30 846 24.98 24.3 75.7 34 7.7 45.9
11:55 1016 30 846 24.98 24.7 76.4 32 7.3 45.1
12:00 1016 30 846 24.98 24.9 76.8 32 7.3 45.2
12:05 1016 30 845 24.95 24.7 76.5 33 7.6 45.7
12:10 1016 30 845 24.95 24.3 75.7 34 7.6 45.6
12:15 1016 30 845 24.95 24.4 75.9 34 7.6 45.7
12:20 1016 30 845 24.95 24.9 76.8 36 8.8 47.9
12:25 1016 30 845 24.95 25.3 77.6 30 6.8 44.2
12:30 1016 30 845 24.95 25.3 77.5 31 7.4 45.3
12:35 1016 30 845 24.95 25.6 78.1 32 7.7 45.9
12:40 1016 30 845 24.95 25.4 77.6 35 9.2 48.6
12:45 1016 30 845 24.95 25.3 77.5 37 9.6 49.4
12:50 1016 30 845 24.95 25.5 77.9 33 8.4 47.1
12:55 1016 30 845 24.95 25.7 78.3 31 7.6 45.6
13:00 1016 30 845 24.95 26 78.8 31 7.8 46
13:05 1016 30 845 24.95 26.3 79.3 30 7.6 45.6
13:10 1016 30 845 24.95 26.2 79.1 30 7.7 45.8
13:15 1016 30 845 24.95 26.6 79.9 29 7.3 45.1
13:20 1016 30 845 24.95 26.1 79 29 6.8 44.3
13:25 1016 30 845 24.95 25.3 77.6 30 6.8 44.3
13:30 1016 30 845 24.95 25.1 77.2 30 6.6 43.8
13:35 1016 30 845 24.95 24.7 76.4 33 7.5 45.5
13:40 1016 30 845 24.95 23.8 74.9 39 9.4 48.9
13:45 1016 30 846 24.98 23.1 73.6 38 8.2 46.8
13:50 1016 30 846 24.98 23.5 74.3 34 6.8 44.3
13:55 1016 30 846 24.98 23.8 74.9 33 6.7 44
14:00 1016 30 845 24.95 23.9 75 31 6.1 43
14:05 1016 30 846 24.98 24.1 75.3 32 6.7 44.1
14:10 1017 30.03 846 24.98 24.1 75.4 32 6.8 44.3
14:15 1017 30.03 846 24.98 24.1 75.4 31 6.3 43.4
14:20 1017 30.03 846 24.98 24.8 76.6 32 7.3 45.2
14:25 1016 30 846 24.98 24.1 75.4 33 7.1 44.8
14:30 1016 30 846 24.98 24.2 75.5 31 6.2 43.1
14:35 1016 30 846 24.98 24.5 76.1 27 4.6 40.3
14:40 1017 30.03 846 24.98 24.6 76.2 27 4.6 40.3
14:45 1017 30.03 846 24.98 24.4 75.9 28 5 40.9
14:50 1017 30.03 846 24.98 24.2 75.6 29 5.1 41.1
14:55 1016 30 846 24.98 23.9 75.1 31 6 42.7
15:00 1017 30.03 846 24.98 23.4 74.1 32 5.7 42.3
15:05 1017 30.03 846 24.98 23.9 75 32 6.4 43.5
15:10 1016 30 846 24.98 24.8 76.7 29 5.7 42.3
15:15 1016 30 845 24.95 24.9 76.8 30 6.3 43.3
15:20 1016 30 845 24.95 24.1 75.5 30 5.8 42.5
15:25 1016 30 845 24.95 23.8 74.9 32 6.2 43.1
15:30 1016 30 845 24.95 23.6 74.5 31 5.7 42.3
15:35 1016 30 845 24.95 23.9 74.9 30 5.3 41.6
15:40 1016 30 845 24.95 24.1 75.4 29 5.1 41.2
15:45 1015 29.97 845 24.95 24.9 76.8 29 5.7 42.2
15:50 1015 29.97 845 24.95 25.2 77.3 29 6.3 43.4
15:55 1015 29.97 845 24.95 24.5 76.1 30 5.9 42.5
16:00 1015 29.97 845 24.95 23.9 74.9 31 6.1 43
16:05 1015 29.97 844 24.92 24 75.1 30 5.3 41.6
16:10 1015 29.97 844 24.92 23.6 74.4 29 4.9 40.8
16:15 1015 29.97 844 24.92 23.7 74.7 30 5.1 41.3
16:20 1015 29.97 844 24.92 23.9 75.1 28 4.6 40.4
16:25 1016 30 845 24.95 23.8 74.9 29 5.2 41.4
16:30 1016 30 845 24.95 23.7 74.7 31 5.9 42.6
16:35 1016 30 846 24.98 23.4 74.2 35 7.2 44.9
16:40 1017 30.03 846 24.98 22.6 72.7 44 10 50
16:45 1017 30.03 846 24.98 21.2 70.1 53 11.3 52.3
16:50 1017 30.03 846 24.98 19.8 67.6 63 12.7 54.9
16:55 1017 30.03 846 24.98 18.5 65.3 67 12.3 54.2
17:00 1017 30.03 846 24.98 17.6 63.7 68 11.7 53.1
17:05 1016 30 846 24.98 17.6 63.8 63 10.6 51.1
17:10 1016 30 845 24.95 18.3 65 60 10.5 50.9
17:15 1016 30 846 24.98 18.8 65.9 57 10.2 50.4
17:20 1016 30 845 24.95 19.3 66.7 56 10.5 50.8
17:25 1017 30.03 846 24.98 19.7 67.4 54 10.2 50.3
17:30 1017 30.03 846 24.98 19.7 67.5 59 11.7 53
17:35 1016 30 846 24.98 19.5 67.1 62 12 53.7
17:40 1016 30 845 24.95 19.7 67.4 55 10.5 50.9
17:45 1016 30 845 24.95 20.5 68.9 52 10.5 50.9
17:50 1016 30 846 24.98 20.4 68.6 52 10.2 50.4
17:55 1016 30 845 24.95 20.2 68.4 51 10 50
18:00 1016 30 846 24.98 20.5 69 51 10 50.1
18:05 1017 30.03 846 24.98 20.5 69 48 9.2 48.5
18:10 1017 30.03 846 24.98 20.6 69 46 8.8 47.8
18:15 1016 30 846 24.98 20.7 69.3 46 8.7 47.7
18:20 1016 30 846 24.98 20.6 69 46 8.6 47.5
18:25 1017 30.03 846 24.98 20.6 69 49 9.6 49.3
18:30 1017 30.03 846 24.98 20.3 68.6 52 10.4 50.7
18:35 1017 30.03 847 25.01 20.3 68.5 42 7.2 44.9
18:40 1017 30.03 846 24.98 20.7 69.3 43 7.9 46.2
18:45 1017 30.03 846 24.98 20.6 69.1 47 9.1 48.4
18:50 1017 30.03 846 24.98 20.6 69.1 47 9.2 48.5
18:55 1017 30.03 846 24.98 20.8 69.5 48 9.5 49.1
19:00 1017 30.03 846 24.98 20.6 69.1 48 9.5 49.1
19:05 1017 30.03 846 24.98 20.6 69.1 49 9.6 49.2
19:10 1017 30.03 846 24.98 20.7 69.3 49 9.9 49.8
19:15 1017 30.03 847 25.01 20.5 68.8 52 10.4 50.7
19:20 1017 30.03 847 25.01 20.3 68.5 52 10.1 50.2
19:25 1017 30.03 846 24.98 20.2 68.4 52 10.2 50.4
19:30 1017 30.03 846 24.98 20.3 68.5 48 9.2 48.5
19:35 1017 30.03 846 24.98 20.3 68.6 51 10 49.9
19:40 1017 30.03 846 24.98 20.2 68.4 50 9.7 49.5
19:45 1017 30.03 846 24.98 20.1 68.2 53 10.3 50.5
19:50 1017 30.03 846 24.98 19.9 67.9 55 10.6 51.1
19:55 1017 30.03 846 24.98 19.8 67.7 58 11.4 52.5
20:00 1017 30.03 846 24.98 19.7 67.4 57 11 51.9
20:05 1017 30.03 846 24.98 19.4 66.9 58 11 51.7
20:10 1017 30.03 847 25.01 19.1 66.4 61 11.5 52.7
20:15 1017 30.03 847 25.01 18.6 65.5 63 11.6 53
20:20 1017 30.03 846 24.98 18.4 65.1 63 11.2 52.2
20:25 1017 30.03 847 25.01 18.4 65 62 11.1 52
20:30 1017 30.03 846 24.98 18.2 64.8 63 11.2 52.1
20:35 1017 30.03 846 24.98 18.2 64.8 63 11.1 52
20:40 1017 30.03 847 25.01 18.3 64.9 61 10.7 51.3
20:45 1017 30.03 847 25.01 18.2 64.8 60 10.5 50.9
20:50 1017 30.03 847 25.01 18.1 64.5 58 9.8 49.6
20:55 1018 30.06 847 25.01 17.9 64.1 57 9.2 48.6
21:00 1018 30.06 847 25.01 17.8 64 60 9.9 49.9
21:05 1018 30.06 847 25.01 17.4 63.3 61 9.9 49.9
21:10 1018 30.06 847 25.01 17 62.6 61 9.5 49.1
21:15 1018 30.06 847 25.01 16.9 62.4 61 9.4 48.8
21:20 1018 30.06 847 25.01 16.8 62.3 63 9.8 49.6
21:25 1018 30.06 847 25.01 16.7 62.1 62 9.5 49.1
21:30 1018 30.06 847 25.01 16.7 62.1 62 9.5 49.1
21:35 1018 30.06 847 25.01 16.6 61.9 62 9.5 49
21:40 1018 30.06 847 25.01 16.5 61.6 63 9.4 48.9
21:45 1018 30.06 847 25.01 16.3 61.4 64 9.5 49.2
21:50 1018 30.06 847 25.01 16.4 61.4 63 9.5 49
21:55 1018 30.06 848 25.04 16.4 61.4 63 9.5 49.1
22:00 1018 30.06 848 25.04 16.3 61.3 64 9.5 49.1
22:05 1018 30.06 848 25.04 16.2 61.2 64 9.5 49.2
22:10 1018 30.06 848 25.04 16 60.8 66 9.8 49.6
22:15 1018 30.06 848 25.04 15.7 60.2 65 9.2 48.6
22:20 1018 30.06 848 25.04 15.6 60.1 64 9 48.2
22:25 1018 30.06 848 25.04 15.5 59.8 65 9.1 48.3
22:30 1018 30.06 848 25.04 15.4 59.7 66 9 48.3
22:35 1018 30.06 847 25.01 15.3 59.5 64 8.6 47.4
22:40 1018 30.06 847 25.01 15.3 59.5 64 8.6 47.5
22:45 1018 30.06 847 25.01 15.4 59.7 62 8.2 46.8
22:50 1018 30.06 847 25.01 15.5 59.9 62 8.3 46.9
22:55 1018 30.06 847 25.01 15.5 59.8 64 8.7 47.6
23:00 1018 30.06 847 25.01 15.4 59.7 64 8.6 47.5
23:05 1018 30.06 847 25.01 15.4 59.7 64 8.7 47.6
23:10 1018 30.06 847 25.01 15.2 59.3 66 8.9 47.9
23:15 1018 30.06 847 25.01 15 59 67 9 48.2
23:20 1018 30.06 847 25.01 15.1 59.2 65 8.6 47.5
23:25 1018 30.06 847 25.01 15.3 59.5 65 8.7 47.7
23:30 1018 30.06 848 25.04 15.2 59.4 67 9.1 48.4
23:35 1019 30.09 848 25.04 15 59 68 9.3 48.7
23:40 1018 30.06 848 25.04 15.1 59.1 66 8.9 48
23:45 1018 30.06 847 25.01 15.2 59.3 68 9.4 48.9
23:50 1018 30.06 847 25.01 15 59 71 9.8 49.7
23:55 1018 30.06 847 25.01 14.5 58.1 73 9.8 49.6
24:00 1018 30.06 847 25.01 14.3 57.7 73 9.6 49.2